FNBG/BUG METAR and TAF weather

Enter ICAO airport designator
Station Type Date Time Source
FNBG METAR 2018/12/09 14:00 UTC NOAA

FNBG 091400Z 28008KT 9999 SCT015 BKN100 27/19 Q1013


Station Type Date Time Source
FNBG Decoded METAR 2018/12/09 14:00 UTC NOAA

Monbaca Benguela , Angola (FNBG) 12-35S 013-25E 4M
Dec 09, 2018 - 09:00 AM EST / 2018.12.09 1400 UTC
Wind: from the W (280 degrees) at 9 MPH (8 KT):0
Visibility: greater than 7 mile(s):0
Sky conditions: mostly cloudy
Temperature: 80 F (27 C)
Dew Point: 66 F (19 C)
Relative Humidity: 61%
Pressure (altimeter): 29.91 in. Hg (1013 hPa)
ob: FNBG 091400Z 28008KT 9999 SCT015 BKN100 27/19 Q1013
cycle: 14

Station Type Date Time Source
FNBG TAF 2018/12/10 12:00 UTC NOAA

TAF FNBG 101100Z 1012/1024 28010KT 9999 SCT020
BECMG 1015/1017 25005KT BKN050
TEMPO 1018/1024 VRB03KT SCT025


Example: see airport list